Time;durP1;ratioP1;P1;durP2;ratioP2;P2;SDS_P1;SDS_P2;PMS_P1;PMS_P2;Temp;Humidity;BMP_temperature;BMP_pressure;BME280_temperature;BME280_humidity;BME280_pressure;Samples;Min_cycle;Max_cycle;Signal;HPM_P1;HPM_P2
2024/04/19 00:02:18;;;;;;;8.90;1.48;;;;;;;7.32;78.79;100653.56;5146254;27;19972;-85
2024/04/19 00:04:44;;;;;;;4.47;0.90;;;;;;;7.29;78.70;100654.41;5116903;27;20021;-84
2024/04/19 00:07:12;;;;;;;15.10;3.08;;;;;;;7.33;79.33;100648.34;5133677;27;20591;-85
2024/04/19 00:09:38;;;;;;;5.97;1.55;;;;;;;7.35;78.08;100645.75;5107934;27;20659;-84
2024/04/19 00:12:06;;;;;;;3.70;1.10;;;;;;;7.29;78.24;100638.78;5111139;27;20023;-85
2024/04/19 00:14:32;;;;;;;2.13;0.98;;;;;;;7.34;78.39;100641.38;5137545;27;20017;-84
2024/04/19 00:17:01;;;;;;;2.40;1.10;;;;;;;7.33;78.05;100629.25;5107828;27;20025;-83
2024/04/19 00:19:28;;;;;;;5.53;1.20;;;;;;;7.33;78.21;100626.66;5111247;27;20020;-85
2024/04/19 00:22:05;;;;;;;7.05;1.10;;;;;;;7.31;78.25;100625.75;5107841;27;20035;-84
2024/04/19 00:24:45;;;;;;;3.00;0.98;;;;;;;7.25;78.10;100617.06;5106990;27;20037;-85
2024/04/19 00:27:11;;;;;;;4.82;1.92;;;;;;;7.31;77.27;100616.19;5114916;27;20012;-83
2024/04/19 00:29:48;;;;;;;4.18;1.20;;;;;;;7.31;77.21;100604.94;5138756;27;20044;-84
2024/04/19 00:32:14;;;;;;;2.75;0.90;;;;;;;7.36;76.57;100605.81;5111685;27;20021;-84
2024/04/19 00:34:46;;;;;;;5.40;1.35;;;;;;;7.27;77.29;100591.91;5141429;27;20024;-82
2024/04/19 00:37:11;;;;;;;6.53;1.00;;;;;;;7.25;77.42;100595.38;5135581;27;20013;-84
2024/04/19 00:39:48;;;;;;;5.65;0.90;;;;;;;7.20;77.84;100589.28;5136871;27;20044;-84
2024/04/19 00:42:14;;;;;;;4.43;1.25;;;;;;;7.18;77.88;100588.38;5133125;27;20347;-84
2024/04/19 00:44:42;;;;;;;6.25;1.48;;;;;;;7.16;78.30;100583.19;5083935;27;20020;-85
2024/04/19 00:47:08;;;;;;;2.22;1.20;;;;;;;7.12;78.46;100577.09;5138555;27;20013;-82
2024/04/19 00:49:39;;;;;;;9.40;1.20;;;;;;;7.17;78.83;100581.44;5160027;27;20021;-84
2024/04/19 00:52:07;;;;;;;8.18;1.52;;;;;;;7.15;78.91;100564.97;5088477;27;20013;-83
2024/04/19 00:54:39;;;;;;;3.80;0.95;;;;;;;7.14;79.50;100568.41;5119295;27;20014;-85
2024/04/19 00:57:08;;;;;;;2.50;1.02;;;;;;;7.19;79.25;100566.72;5135844;27;20032;-83
2024/04/19 01:02:21;;;;;;;4.57;0.95;;;;;;;7.11;79.72;100556.25;5105739;27;20021;-83
2024/04/19 01:04:47;;;;;;;5.90;1.52;;;;;;;7.10;79.39;100542.38;5133988;27;20016;-85
2024/04/19 01:07:16;;;;;;;5.70;1.17;;;;;;;7.14;79.40;100538.03;5108680;27;20014;-85
2024/04/19 01:09:44;;;;;;;4.10;1.08;;;;;;;7.12;79.62;100535.44;5087539;27;20659;-86
2024/04/19 01:12:13;;;;;;;5.72;2.35;;;;;;;7.10;79.85;100523.28;5107601;27;20473;-85
2024/04/19 01:14:53;;;;;;;3.45;1.45;;;;;;;7.12;79.71;100517.22;5115405;27;20021;-85
2024/04/19 01:17:24;;;;;;;3.50;1.42;;;;;;;7.13;80.01;100510.25;5113722;27;20080;-85
2024/04/19 01:19:51;;;;;;;4.53;2.20;;;;;;;7.07;79.82;100508.53;5104310;27;20013;-84
2024/04/19 01:22:23;;;;;;;8.18;1.30;;;;;;;7.17;79.76;100498.13;5142511;27;20342;-82
2024/04/19 01:24:52;;;;;;;3.15;1.63;;;;;;;7.16;79.38;100488.56;5108505;27;20412;-84
2024/04/19 01:27:21;;;;;;;3.35;1.90;;;;;;;7.19;79.34;100486.84;5084234;27;20096;-86
2024/04/19 01:29:49;;;;;;;3.20;1.50;;;;;;;7.24;79.42;100487.72;5102389;27;20375;-86
2024/04/19 01:32:18;;;;;;;1.83;1.73;;;;;;;7.20;79.83;100486.00;5145243;27;20481;-84
2024/04/19 01:34:46;;;;;;;5.53;1.77;;;;;;;7.24;80.01;100482.53;5107801;27;20016;-85
2024/04/19 01:37:17;;;;;;;10.18;1.60;;;;;;;7.22;80.66;100480.78;5113113;27;20013;-84
2024/04/19 01:39:46;;;;;;;3.72;1.38;;;;;;;7.18;80.70;100474.69;5107308;27;20125;-87
2024/04/19 01:42:14;;;;;;;5.72;1.33;;;;;;;7.18;80.57;100472.09;5111527;27;20509;-84
2024/04/19 01:44:47;;;;;;;3.30;1.70;;;;;;;7.18;81.34;100479.03;5112890;27;20005;-86
2024/04/19 01:47:21;;;;;;;6.70;2.38;;;;;;;7.16;80.89;100458.22;5110980;27;20477;-83
2024/04/19 01:49:53;;;;;;;9.57;1.45;;;;;;;7.14;78.39;100461.69;5103648;27;20118;-85
2024/04/19 01:52:24;;;;;;;6.20;1.70;;;;;;;7.17;77.53;100448.66;5108075;27;20025;-85
2024/04/19 01:54:49;;;;;;;4.70;1.20;;;;;;;7.15;76.24;100453.03;5143121;27;20025;-84
2024/04/19 01:57:18;;;;;;;1.88;1.00;;;;;;;7.11;75.79;100441.72;5138695;27;20444;-86
2024/04/19 01:59:49;;;;;;;4.10;1.83;;;;;;;7.08;76.16;100442.59;5085432;27;20052;-88
2024/04/19 02:02:18;;;;;;;2.03;1.38;;;;;;;7.06;77.17;100441.69;5138227;27;20074;-84
2024/04/19 02:04:47;;;;;;;1.52;1.38;;;;;;;6.98;77.45;100432.16;5166187;27;20061;-86
2024/04/19 02:07:18;;;;;;;4.47;1.10;;;;;;;6.86;77.86;100427.81;5144316;27;20357;-85
2024/04/19 02:09:49;;;;;;;2.90;1.50;;;;;;;6.68;78.15;100407.81;5143284;27;20017;-86
2024/04/19 02:12:30;;;;;;;5.22;1.45;;;;;;;6.43;81.24;100412.91;5113940;27;20012;-83
2024/04/19 02:14:56;;;;;;;2.28;1.30;;;;;;;6.49;82.95;100414.66;5133739;27;20444;-83
2024/04/19 02:17:29;;;;;;;2.90;1.45;;;;;;;6.39;83.40;100403.38;5114027;27;20036;-82
2024/04/19 02:19:55;;;;;;;2.92;1.88;;;;;;;6.32;85.90;100399.00;5103247;27;21470;-84
2024/04/19 02:22:23;;;;;;;1.95;1.42;;;;;;;6.25;87.39;100388.56;5107244;27;20510;-84
2024/04/19 02:24:49;;;;;;;1.80;1.60;;;;;;;6.33;90.18;100388.59;5109921;27;20843;-84
2024/04/19 02:32:46;;;;;;;;;;;;;;;6.11;100.00;100366.84;5114779;27;20033;-83
2024/04/19 02:35:17;;;;;;;4.20;2.10;;;;;;;6.02;100.00;100366.78;5136336;27;19929;-83
2024/04/19 02:37:47;;;;;;;4.68;2.47;;;;;;;5.85;100.00;100362.34;5113626;27;20023;-84
2024/04/19 02:40:18;;;;;;;4.00;2.00;;;;;;;5.84;100.00;100359.72;5105685;27;20013;-84
2024/04/19 02:42:54;;;;;;;4.32;2.38;;;;;;;5.80;100.00;100357.13;5110921;27;20747;-84
2024/04/19 02:45:22;;;;;;;3.67;1.90;;;;;;;5.73;100.00;100352.75;5137768;27;20013;-84
2024/04/19 02:47:51;;;;;;;5.57;2.90;;;;;;;5.67;100.00;100344.94;5111773;27;20088;-82
2024/04/19 02:50:19;;;;;;;6.10;2.35;;;;;;;5.59;100.00;100331.91;5132257;27;20013;-81
2024/04/19 02:52:47;;;;;;;7.97;2.95;;;;;;;5.58;100.00;100331.88;5131125;27;20430;-83
2024/04/19 02:55:15;;;;;;;4.65;2.75;;;;;;;5.61;100.00;100321.53;5137372;27;20018;-82
2024/04/19 02:57:44;;;;;;;5.55;2.85;;;;;;;5.52;100.00;100313.69;5138635;27;20362;-82
2024/04/19 03:00:13;;;;;;;3.58;2.28;;;;;;;5.52;100.00;100308.47;5102370;27;20069;-82
2024/04/19 03:02:41;;;;;;;3.08;2.28;;;;;;;5.45;100.00;100305.84;5107563;27;20005;-83
2024/04/19 03:05:10;;;;;;;5.25;2.92;;;;;;;5.46;100.00;100294.59;5113318;27;20032;-83
2024/04/19 03:07:38;;;;;;;4.10;3.45;;;;;;;5.43;100.00;100291.97;5134744;27;20370;-84
2024/04/19 03:10:06;;;;;;;5.07;3.20;;;;;;;5.45;100.00;100290.25;5079895;27;20033;-82
2024/04/19 03:12:35;;;;;;;2.83;2.63;;;;;;;5.38;100.00;100277.25;5083707;27;20032;-84
2024/04/19 03:15:03;;;;;;;4.20;3.80;;;;;;;5.40;100.00;100267.75;5111309;27;20041;-83
2024/04/19 03:17:31;;;;;;;3.42;3.13;;;;;;;5.32;100.00;100259.91;5107384;27;20025;-82
2024/04/19 03:19:59;;;;;;;5.68;3.30;;;;;;;5.33;100.00;100259.03;5092600;27;20018;-82
2024/04/19 03:22:28;;;;;;;4.95;3.92;;;;;;;5.33;100.00;100240.00;5134786;27;20061;-83
2024/04/19 03:24:56;;;;;;;3.80;3.50;;;;;;;5.31;100.00;100224.44;5127284;27;20075;-82
2024/04/19 03:27:25;;;;;;;6.68;4.50;;;;;;;5.20;100.00;100228.69;5106194;27;20473;-84
2024/04/19 03:29:57;;;;;;;4.82;4.43;;;;;;;5.15;100.00;100213.09;5105762;27;20459;-82
2024/04/19 03:32:27;;;;;;;4.57;4.15;;;;;;;5.10;100.00;100210.47;5106464;27;20025;-81
2024/04/19 03:34:55;;;;;;;7.88;3.90;;;;;;;5.07;100.00;100206.97;5130138;27;20377;-83
2024/04/19 03:37:24;;;;;;;7.72;4.43;;;;;;;4.99;100.00;100203.47;5130869;27;20022;-83
2024/04/19 03:39:55;;;;;;;6.25;4.47;;;;;;;4.95;100.00;100192.19;5097400;27;20033;-83
2024/04/19 03:42:23;;;;;;;5.25;4.72;;;;;;;4.93;100.00;100194.78;5108206;27;20024;-84
2024/04/19 03:47:36;;;;;;;4.57;4.18;;;;;;;5.05;100.00;100178.44;5126838;27;20027;-83
2024/04/19 03:50:04;;;;;;;8.25;5.95;;;;;;;5.01;100.00;100160.25;5099734;27;20021;-82
2024/04/19 03:52:35;;;;;;;4.55;4.10;;;;;;;4.95;100.00;100150.69;5102739;27;20030;-84
2024/04/19 03:55:04;;;;;;;5.60;5.03;;;;;;;4.93;100.00;100140.31;5135278;27;20013;-82
2024/04/19 03:57:32;;;;;;;5.25;4.30;;;;;;;5.06;100.00;100138.66;5106492;27;20010;-83
2024/04/19 04:00:00;;;;;;;5.28;4.78;;;;;;;4.92;100.00;100135.97;5097275;27;20010;-82
2024/04/19 04:02:28;;;;;;;5.88;5.03;;;;;;;4.91;100.00;100129.06;5125801;27;20047;-81
2024/04/19 04:05:00;;;;;;;7.10;6.43;;;;;;;5.03;100.00;100117.91;5128710;27;20017;-82
2024/04/19 04:07:28;;;;;;;5.05;4.60;;;;;;;4.87;100.00;100111.75;5128411;27;20054;-82
2024/04/19 04:09:56;;;;;;;7.28;3.92;;;;;;;4.86;100.00;100107.41;5092676;27;20028;-83
2024/04/19 04:12:24;;;;;;;5.07;4.57;;;;;;;4.85;100.00;100108.28;5126457;27;20311;-83
2024/04/19 04:14:53;;;;;;;4.50;4.13;;;;;;;4.91;100.00;100105.72;5101513;27;20014;-82
2024/04/19 04:17:21;;;;;;;6.35;3.75;;;;;;;4.87;100.00;100098.78;5157149;27;20014;-81
2024/04/19 04:19:50;;;;;;;4.78;4.22;;;;;;;4.79;100.00;100085.75;5102183;27;20994;-84
2024/04/19 04:22:20;;;;;;;3.55;3.28;;;;;;;4.78;100.00;100083.16;5068880;28;20022;-83
2024/04/19 04:24:49;;;;;;;4.00;3.70;;;;;;;4.82;100.00;100071.09;5126009;27;20029;-83
2024/04/19 04:27:17;;;;;;;4.45;2.78;;;;;;;4.74;100.00;100060.69;5096473;27;20036;-85
2024/04/19 04:29:46;;;;;;;4.22;3.55;;;;;;;4.85;100.00;100064.22;5127729;27;20014;-83
2024/04/19 04:32:14;;;;;;;3.58;3.28;;;;;;;4.83;100.00;100058.13;5136892;27;20013;-84
2024/04/19 04:34:43;;;;;;;2.78;2.53;;;;;;;4.80;100.00;100046.00;5137760;27;20021;-82
2024/04/19 04:37:11;;;;;;;5.43;5.03;;;;;;;4.80;100.00;100032.19;5075981;27;20013;-83
2024/04/19 04:39:40;;;;;;;2.85;2.65;;;;;;;4.85;100.00;100032.19;5099106;27;20793;-84
2024/04/19 04:42:08;;;;;;;3.05;2.85;;;;;;;4.89;100.00;100034.81;5101267;27;20078;-82
2024/04/19 04:44:37;;;;;;;3.45;3.08;;;;;;;4.89;100.00;100027.03;5108615;27;20014;-83
2024/04/19 04:47:05;;;;;;;3.70;3.28;;;;;;;4.85;100.00;100027.00;5130472;27;20059;-85
2024/04/19 04:49:33;;;;;;;2.72;2.53;;;;;;;5.01;100.00;100020.19;5148769;27;20014;-84
2024/04/19 04:52:04;;;;;;;3.38;3.00;;;;;;;5.01;100.00;100020.19;5077213;27;20090;-82
2024/04/19 04:54:39;;;;;;;2.55;2.35;;;;;;;5.00;100.00;100018.44;5135311;27;20021;-84
2024/04/19 04:57:08;;;;;;;2.13;2.00;;;;;;;4.87;100.00;100000.22;5159497;27;20265;-84
2024/04/19 04:59:36;;;;;;;3.65;2.95;;;;;;;4.91;100.00;100008.91;5130919;27;20026;-83
2024/04/19 05:02:08;;;;;;;2.42;2.22;;;;;;;4.78;100.00;100001.06;5100813;27;20084;-86
2024/04/19 05:04:36;;;;;;;2.03;1.92;;;;;;;4.86;100.00;99995.03;5129920;27;20007;-83
2024/04/19 05:07:06;;;;;;;2.28;2.08;;;;;;;4.88;100.00;99977.78;5117769;27;20475;-86
2024/04/19 05:09:37;;;;;;;2.15;2.05;;;;;;;4.80;100.00;99977.75;5137963;27;20022;-83
2024/04/19 05:12:06;;;;;;;1.75;1.65;;;;;;;4.89;100.00;99976.88;5143110;27;20024;-83
2024/04/19 05:14:36;;;;;;;1.70;1.60;;;;;;;4.88;100.00;99973.44;5117050;27;20014;-85
2024/04/19 05:17:05;;;;;;;2.15;1.90;;;;;;;4.91;100.00;99960.47;5109516;27;20042;-86
2024/04/19 05:19:35;;;;;;;2.88;1.88;;;;;;;4.90;100.00;99961.34;5140247;27;20053;-84
2024/04/19 05:22:06;;;;;;;1.45;1.35;;;;;;;4.91;100.00;99967.41;5110390;27;20026;-85
2024/04/19 05:24:34;;;;;;;0.90;0.90;;;;;;;4.87;100.00;99948.34;5104519;27;20013;-85
2024/04/19 05:27:03;;;;;;;1.92;1.65;;;;;;;4.90;100.00;99945.78;5163171;27;20006;-86
2024/04/19 05:29:34;;;;;;;1.52;1.42;;;;;;;4.96;100.00;99945.78;5140309;27;20018;-84
2024/04/19 05:32:02;;;;;;;1.15;1.15;;;;;;;4.95;100.00;99935.41;5113389;27;20054;-83
2024/04/19 05:34:30;;;;;;;0.95;0.95;;;;;;;4.93;100.00;99938.00;5124337;27;20028;-86
2024/04/19 05:37:01;;;;;;;1.05;1.05;;;;;;;4.89;100.00;99941.47;5130471;27;20013;-85
2024/04/19 05:39:32;;;;;;;2.17;1.50;;;;;;;4.84;100.00;99927.63;5095251;28;20031;-85
2024/04/19 05:42:00;;;;;;;1.38;0.98;;;;;;;4.86;100.00;99920.69;5140759;27;20018;-86
2024/04/19 05:44:31;;;;;;;0.93;0.90;;;;;;;4.86;100.00;99918.09;5136344;27;20105;-86
2024/04/19 05:47:03;;;;;;;1.52;1.17;;;;;;;4.79;100.00;99925.00;5113190;27;20150;-83
2024/04/19 05:49:31;;;;;;;1.17;1.08;;;;;;;4.69;100.00;99912.88;5111333;27;20010;-83
2024/04/19 05:52:02;;;;;;;1.27;1.17;;;;;;;4.58;100.00;99924.94;5089531;27;20010;-84
2024/04/19 05:54:33;;;;;;;1.15;0.90;;;;;;;4.52;100.00;99912.81;5161441;27;20343;-84
2024/04/19 05:57:02;;;;;;;0.90;0.90;;;;;;;4.49;100.00;99899.00;5111080;27;20086;-83
2024/04/19 05:59:32;;;;;;;0.90;0.88;;;;;;;4.51;100.00;99894.66;5133640;27;20005;-84
2024/04/19 06:02:02;;;;;;;1.20;1.08;;;;;;;4.52;100.00;99899.84;5115964;27;20026;-85
2024/04/19 06:04:32;;;;;;;0.80;0.80;;;;;;;4.49;100.00;99886.03;5114960;27;20080;-84
2024/04/19 06:07:00;;;;;;;1.17;1.08;;;;;;;4.46;100.00;99886.88;5145631;27;20061;-84
2024/04/19 06:09:28;;;;;;;1.40;1.20;;;;;;;4.40;100.00;99886.84;5141170;27;20047;-83
2024/04/19 06:12:01;;;;;;;1.02;1.02;;;;;;;4.57;100.00;99882.59;5114447;27;20021;-84
2024/04/19 06:14:33;;;;;;;0.80;0.80;;;;;;;4.54;100.00;99876.56;5113738;27;20025;-85
2024/04/19 06:17:03;;;;;;;2.30;1.10;;;;;;;4.57;100.00;99882.59;5108510;27;20010;-87
2024/04/19 06:19:32;;;;;;;1.30;1.20;;;;;;;4.57;100.00;99864.44;5139808;27;20188;-88
2024/04/19 06:22:02;;;;;;;1.08;0.80;;;;;;;4.69;100.00;99860.16;5140761;27;20010;-86
2024/04/19 06:24:30;;;;;;;0.82;0.82;;;;;;;4.71;100.00;99861.88;5121784;27;20010;-85
2024/04/19 06:26:59;;;;;;;0.93;0.93;;;;;;;4.76;100.00;99857.59;5119756;27;20010;-85
2024/04/19 06:29:31;;;;;;;1.02;0.65;;;;;;;4.78;100.00;99849.81;5129153;27;20014;-87
2024/04/19 06:32:01;;;;;;;0.52;0.40;;;;;;;4.81;100.00;99847.22;5124190;27;19997;-86
2024/04/19 06:34:31;;;;;;;0.77;0.77;;;;;;;4.87;100.00;99834.25;5143837;27;20042;-87
2024/04/19 06:37:02;;;;;;;0.70;0.70;;;;;;;4.93;100.00;99828.22;5121797;27;20017;-86
2024/04/19 06:39:36;;;;;;;0.80;0.80;;;;;;;5.00;100.00;99831.69;5128266;27;20037;-89
2024/04/19 06:42:08;;;;;;;1.13;0.90;;;;;;;4.96;100.00;99821.28;5121948;27;20218;-88
2024/04/19 06:44:44;;;;;;;1.42;0.70;;;;;;;4.97;100.00;99824.75;5183173;27;20064;-88
2024/04/19 06:47:15;;;;;;;1.30;0.70;;;;;;;5.01;100.00;99825.63;5135682;27;20008;-86
2024/04/19 06:49:48;;;;;;;0.65;0.65;;;;;;;5.10;100.00;99823.03;5146632;27;20006;-88
2024/04/19 06:52:22;;;;;;;0.73;0.63;;;;;;;5.04;100.00;99816.09;5145157;27;20359;-88
2024/04/19 06:54:50;;;;;;;;;;;;;;;5.12;100.00;99810.91;5129839;27;20026;-87
2024/04/19 06:57:21;;;;;;;0.70;0.70;;;;;;;5.20;100.00;99819.59;5161638;22;20065;-88
2024/04/19 06:59:58;;;;;;;0.60;0.60;;;;;;;5.18;100.00;99807.47;5131693;27;20014;-87
2024/04/19 07:02:35;;;;;;;0.70;0.70;;;;;;;5.24;100.00;99797.94;5156559;27;20057;-87
2024/04/19 07:05:04;;;;;;;0.88;0.88;;;;;;;5.29;100.00;99791.03;5156411;27;20549;-88
2024/04/19 07:07:54;;;;;;;0.75;0.75;;;;;;;5.35;100.00;99786.69;5109746;28;20018;-87
2024/04/19 07:10:26;;;;;;;0.68;0.50;;;;;;;5.32;100.00;99771.13;5129335;27;20021;-85
2024/04/19 07:12:59;;;;;;;0.70;0.70;;;;;;;5.34;100.00;99772.00;5109216;27;20022;-86
2024/04/19 07:15:28;;;;;;;0.50;0.40;;;;;;;5.32;100.00;99772.00;5160959;27;20021;-87
2024/04/19 07:17:58;;;;;;;0.50;0.43;;;;;;;5.39;100.00;99768.50;5104474;28;20018;-87
2024/04/19 07:20:31;;;;;;;0.52;0.52;;;;;;;5.41;100.00;99756.41;5110667;27;20013;-87
2024/04/19 07:23:04;;;;;;;0.50;0.40;;;;;;;5.40;100.00;99751.22;5165467;27;20016;-86
2024/04/19 07:25:37;;;;;;;1.08;0.98;;;;;;;5.45;100.00;99760.72;5072107;28;20022;-86
2024/04/19 07:28:06;;;;;;;0.30;0.30;;;;;;;5.46;100.00;99749.47;5130202;27;20025;-86
2024/04/19 07:30:34;;;;;;;0.38;0.30;;;;;;;5.51;100.00;99759.81;5153084;27;20023;-87
2024/04/19 07:33:04;;;;;;;0.65;0.40;;;;;;;5.51;100.00;99746.00;5124165;27;20089;-85
2024/04/19 07:35:35;;;;;;;0.20;0.20;;;;;;;5.61;100.00;99758.94;5097461;27;20013;-88
2024/04/19 07:38:05;;;;;;;0.40;0.40;;;;;;;5.62;100.00;99765.84;5122837;27;20054;-83
2024/04/19 07:40:49;;;;;;;0.65;0.45;;;;;;;5.67;100.00;99755.47;5070899;28;20021;-87
2024/04/19 07:43:23;;;;;;;0.30;0.30;;;;;;;5.72;100.00;99747.66;5131653;27;20006;-85
2024/04/19 07:45:53;;;;;;;0.30;0.30;;;;;;;5.77;100.00;99756.28;5159758;27;20002;-85
2024/04/19 07:48:27;;;;;;;0.38;0.38;;;;;;;5.81;100.00;99750.19;5155135;27;20010;-84
2024/04/19 07:50:55;;;;;;;0.20;0.20;;;;;;;5.83;100.00;99750.19;5158304;27;20014;-86
2024/04/19 07:53:24;;;;;;;0.40;0.40;;;;;;;5.78;100.00;99751.06;5066963;27;20025;-85
2024/04/19 07:55:53;;;;;;;2.03;0.63;;;;;;;5.72;100.00;99738.13;5087899;27;20135;-83
2024/04/19 07:58:25;;;;;;;0.70;0.50;;;;;;;5.80;100.00;99745.88;5121047;27;20012;-83
2024/04/19 08:00:55;;;;;;;0.40;0.40;;;;;;;5.83;100.00;99737.19;5120693;27;20009;-85
2024/04/19 08:03:23;;;;;;;1.60;0.80;;;;;;;5.95;100.00;99739.75;5144511;27;20037;-85
2024/04/19 08:05:54;;;;;;;0.73;0.73;;;;;;;6.04;100.00;99731.94;5151646;27;20017;-88
2024/04/19 08:08:26;;;;;;;0.28;0.28;;;;;;;6.11;100.00;99740.56;5148219;27;20308;-87
2024/04/19 08:10:57;;;;;;;0.85;0.60;;;;;;;6.12;100.00;99727.56;5147040;27;20546;-86
2024/04/19 08:13:26;;;;;;;0.45;0.45;;;;;;;6.15;100.00;99712.84;5127169;27;20024;-86
2024/04/19 08:15:55;;;;;;;0.55;0.38;;;;;;;6.29;100.00;99714.47;5129468;27;20111;-86
2024/04/19 08:18:26;;;;;;;0.55;0.38;;;;;;;6.46;100.00;99716.09;5126051;27;20065;-85
2024/04/19 08:20:56;;;;;;;0.80;0.43;;;;;;;6.51;100.00;99716.94;5106002;27;20037;-88
2024/04/19 08:23:25;;;;;;;0.50;0.50;;;;;;;6.65;100.00;99715.94;5122994;27;20009;-86
2024/04/19 08:26:01;;;;;;;1.13;0.60;;;;;;;6.82;100.00;99711.47;5123232;27;20009;-89
2024/04/19 08:28:30;;;;;;;0.73;0.73;;;;;;;6.93;100.00;99707.03;5124677;27;20005;-87
2024/04/19 08:30:58;;;;;;;0.47;0.47;;;;;;;7.21;100.00;99698.09;5123129;27;20017;-88
2024/04/19 08:33:37;;;;;;;0.60;0.60;;;;;;;7.54;100.00;99703.81;5068678;27;20024;-88
2024/04/19 08:36:07;;;;;;;1.20;1.00;;;;;;;7.50;100.00;99702.97;5127879;27;20009;-86
2024/04/19 08:38:37;;;;;;;2.17;0.80;;;;;;;7.51;100.00;99693.41;5099594;27;20020;-87
2024/04/19 08:41:06;;;;;;;0.90;0.90;;;;;;;7.45;100.00;99684.78;5126592;27;20010;-86
2024/04/19 08:43:39;;;;;;;0.70;0.70;;;;;;;7.48;100.00;99690.84;5123480;27;20001;-87
2024/04/19 08:46:08;;;;;;;1.35;0.98;;;;;;;7.53;100.00;99694.28;5100240;27;20017;-87
2024/04/19 08:48:39;;;;;;;0.60;0.60;;;;;;;7.48;100.00;99694.31;5126286;27;20135;-86
2024/04/19 08:51:13;;;;;;;4.32;2.55;;;;;;;7.48;100.00;99698.66;5155118;27;20009;-87
2024/04/19 08:53:45;;;;;;;0.90;0.65;;;;;;;7.84;100.00;99688.69;5106382;27;20021;-87
2024/04/19 08:56:16;;;;;;;0.70;0.70;;;;;;;7.91;100.00;99690.31;5148183;27;20027;-89
2024/04/19 08:58:49;;;;;;;0.90;0.90;;;;;;;7.98;100.00;99681.53;5141066;27;20005;-88
2024/04/19 09:01:18;;;;;;;1.48;0.80;;;;;;;8.03;100.00;99676.25;5148211;27;20017;-87
2024/04/19 09:03:46;;;;;;;1.90;1.10;;;;;;;8.19;100.00;99685.56;5124190;27;20009;-87
2024/04/19 09:06:15;;;;;;;1.38;1.30;;;;;;;8.28;100.00;99677.63;5146895;27;20020;-87
2024/04/19 09:08:44;;;;;;;1.10;1.10;;;;;;;8.33;100.00;99672.34;5144126;27;20013;-89
2024/04/19 09:11:20;;;;;;;1.45;1.20;;;;;;;8.57;100.00;99662.44;5144146;27;20049;-87
2024/04/19 09:13:48;;;;;;;2.30;1.30;;;;;;;9.43;100.00;99659.97;5101088;27;20021;-86
2024/04/19 09:16:17;;;;;;;3.28;0.90;;;;;;;9.48;100.00;99644.19;5173952;27;20410;-86
2024/04/19 09:18:53;;;;;;;2.08;1.67;;;;;;;9.39;100.00;99642.66;5092503;27;20005;-85
2024/04/19 09:21:25;;;;;;;1.35;1.10;;;;;;;9.94;100.00;99638.81;5156746;27;20005;-88
2024/04/19 09:24:12;;;;;;;2.88;0.90;;;;;;;9.83;100.00;99635.63;5181537;27;20009;-87
2024/04/19 09:26:44;;;;;;;2.72;1.17;;;;;;;9.63;100.00;99643.88;5157326;27;20001;-84
2024/04/19 09:29:17;;;;;;;0.93;0.88;;;;;;;9.88;100.00;99638.09;5124579;27;20019;-86
2024/04/19 09:31:45;;;;;;;1.00;0.90;;;;;;;10.67;100.00;99636.28;5142421;27;20140;-86
2024/04/19 09:34:23;;;;;;;1.95;1.75;;;;;;;11.17;100.00;99620.97;5131627;27;20009;-87
2024/04/19 09:37:00;;;;;;;2.30;1.10;;;;;;;11.95;99.92;99623.94;5093140;27;20045;-86
2024/04/19 09:39:33;;;;;;;2.67;0.90;;;;;;;13.51;90.82;99616.88;5119556;27;20013;-85
2024/04/19 09:42:04;;;;;;;5.32;1.05;;;;;;;12.92;86.31;99620.78;5101141;27;20009;-85
2024/04/19 09:44:37;;;;;;;1.38;1.27;;;;;;;13.58;85.61;99614.88;5132358;27;20005;-87
2024/04/19 09:47:07;;;;;;;1.23;0.60;;;;;;;14.04;78.05;99610.47;5123127;27;20013;-87
2024/04/19 09:49:36;;;;;;;0.80;0.80;;;;;;;14.85;75.38;99604.53;5133534;27;20013;-82
2024/04/19 09:52:05;;;;;;;1.48;0.73;;;;;;;13.58;78.33;99620.13;5142643;27;20498;-84
2024/04/19 09:54:41;;;;;;;2.40;0.80;;;;;;;12.45;84.27;99603.13;5104456;27;20032;-86
2024/04/19 09:57:11;;;;;;;1.17;0.57;;;;;;;11.58;89.92;99604.94;5133190;27;20025;-85
2024/04/19 09:59:42;;;;;;;1.75;1.00;;;;;;;11.13;93.31;99605.38;5113800;28;20074;-86
2024/04/19 10:02:15;;;;;;;5.97;0.90;;;;;;;10.58;97.80;99603.34;5093100;27;20002;-85
2024/04/19 10:04:52;;;;;;;2.88;0.98;;;;;;;10.34;100.00;99602.16;5096163;27;20028;-87
2024/04/19 10:07:24;;;;;;;3.30;0.68;;;;;;;10.08;100.00;99585.38;5101551;28;20463;-85
2024/04/19 10:09:54;;;;;;;1.50;1.05;;;;;;;9.94;100.00;99589.16;5090473;27;20013;-85
2024/04/19 10:12:23;;;;;;;1.73;0.98;;;;;;;9.63;100.00;99598.59;5090965;28;20059;-84
2024/04/19 10:14:52;;;;;;;1.90;0.88;;;;;;;9.24;100.00;99595.06;5086254;27;20013;-86
2024/04/19 10:17:20;;;;;;;1.10;0.60;;;;;;;9.00;100.00;99592.94;5125925;27;20057;-87
2024/04/19 10:19:49;;;;;;;2.63;0.95;;;;;;;9.00;100.00;99591.19;5120197;27;20017;-84
2024/04/19 10:22:24;;;;;;;1.77;0.80;;;;;;;9.03;100.00;99585.03;5068330;28;20025;-84
2024/04/19 10:25:05;;;;;;;3.03;0.70;;;;;;;9.00;100.00;99590.34;5069280;28;20108;-84
2024/04/19 10:27:38;;;;;;;5.15;1.10;;;;;;;9.08;100.00;99586.66;5118301;27;20014;-85
2024/04/19 10:30:44;;;;;;;3.20;0.75;;;;;;;9.57;100.00;99581.31;5101219;28;20025;-87
2024/04/19 10:33:14;;;;;;;2.63;0.60;;;;;;;10.86;100.00;99574.69;5081190;27;20017;-85
2024/04/19 10:35:46;;;;;;;2.28;1.00;;;;;;;11.15;100.00;99573.00;5059986;28;20028;-85
2024/04/19 10:38:16;;;;;;;2.78;1.67;;;;;;;11.00;100.00;99561.22;5056524;27;20010;-82
2024/04/19 10:40:49;;;;;;;3.58;1.63;;;;;;;11.27;100.00;99563.91;5091097;28;20010;-85
2024/04/19 10:43:18;;;;;;;2.83;1.55;;;;;;;11.95;100.00;99538.28;5123410;27;20111;-86
2024/04/19 10:45:48;;;;;;;1.75;0.77;;;;;;;13.21;88.63;99535.63;5072939;28;20024;-84
2024/04/19 10:48:20;;;;;;;3.33;1.50;;;;;;;13.07;86.90;99541.41;5095394;27;20043;-86
2024/04/19 10:50:46;;;;;;;2.92;0.90;;;;;;;13.24;86.98;99532.00;5089889;27;20016;-87
2024/04/19 10:53:16;;;;;;;4.95;1.23;;;;;;;13.53;84.84;99533.56;5093258;27;20018;-86
2024/04/19 10:55:46;;;;;;;2.83;0.93;;;;;;;13.90;81.11;99534.72;5095033;27;20041;-87
2024/04/19 10:58:15;;;;;;;2.50;0.60;;;;;;;13.31;77.26;99530.00;5092978;27;20005;-88
2024/04/19 11:00:49;;;;;;;1.73;0.70;;;;;;;12.18;81.04;99526.19;5061010;27;20019;-87
2024/04/19 11:03:17;;;;;;;4.28;1.45;;;;;;;11.58;87.03;99523.69;5140329;27;20210;-88
2024/04/19 11:05:45;;;;;;;5.07;1.00;;;;;;;11.22;88.14;99523.91;5089085;27;20879;-87
2024/04/19 11:08:17;;;;;;;2.53;1.13;;;;;;;10.86;91.21;99531.91;5091911;27;20009;-86
2024/04/19 11:10:45;;;;;;;3.00;1.65;;;;;;;10.45;100.00;99545.22;5091197;27;20013;-88
2024/04/19 11:13:16;;;;;;;4.90;1.00;;;;;;;9.50;100.00;99601.47;5089851;27;20075;-87
2024/04/19 11:15:45;;;;;;;4.30;0.88;;;;;;;8.98;100.00;99603.38;5097450;27;20010;-85
2024/04/19 11:18:13;;;;;;;5.13;1.35;;;;;;;9.04;100.00;99613.72;5118908;27;20104;-88
2024/04/19 11:20:42;;;;;;;6.97;0.82;;;;;;;8.98;100.00;99597.31;5090772;27;20067;-86
2024/04/19 11:23:11;;;;;;;2.88;1.25;;;;;;;9.53;100.00;99606.66;5123139;27;20009;-88
2024/04/19 11:25:41;;;;;;;3.28;1.20;;;;;;;11.33;100.00;99604.78;5112932;27;20021;-87
2024/04/19 11:28:14;;;;;;;1.88;0.70;;;;;;;12.27;100.00;99517.13;5092934;28;20071;-88
2024/04/19 11:30:46;;;;;;;4.32;0.43;;;;;;;12.98;100.00;99510.19;5040794;28;20018;-88
2024/04/19 11:33:14;;;;;;;3.97;0.52;;;;;;;13.96;92.09;99506.44;5074456;28;20744;-86
2024/04/19 11:35:44;;;;;;;5.32;0.95;;;;;;;15.37;78.64;99501.16;5088634;28;20021;-88
2024/04/19 11:38:22;;;;;;;6.70;0.93;;;;;;;15.85;71.75;99483.91;5116236;27;20067;-87
2024/04/19 11:40:54;;;;;;;2.90;0.85;;;;;;;15.50;73.45;99478.53;5083179;27;20013;-87
2024/04/19 11:43:22;;;;;;;3.08;0.93;;;;;;;15.87;67.58;99482.03;5059439;27;20013;-85
2024/04/19 11:46:09;;;;;;;4.53;0.70;;;;;;;16.36;68.39;99484.00;5087016;28;20010;-88
2024/04/19 11:48:37;;;;;;;3.80;1.00;;;;;;;17.13;64.52;99472.91;5128129;27;20474;-84
2024/04/19 11:51:11;;;;;;;1.00;0.90;;;;;;;15.66;67.94;99480.44;5084532;28;20383;-85
2024/04/19 11:53:40;;;;;;;2.78;0.93;;;;;;;15.35;69.61;99482.75;5112319;27;20098;-86
2024/04/19 11:56:09;;;;;;;3.83;1.13;;;;;;;14.58;75.36;99475.72;5092778;27;20024;-86
2024/04/19 11:58:38;;;;;;;2.10;0.88;;;;;;;13.72;76.35;99477.59;5118085;27;20049;-86